sensor_id;sensor_type;location;lat;lon;timestamp;P1;durP1;ratioP1;P2;durP2;ratioP2
60468;SDS011;46316;47.582;10.238;2022-07-17T00:00:25;4.90;;;3.17;;
60468;SDS011;46316;47.582;10.238;2022-07-17T00:02:51;3.90;;;2.40;;
60468;SDS011;46316;47.582;10.238;2022-07-17T00:05:16;3.33;;;2.55;;
60468;SDS011;46316;47.582;10.238;2022-07-17T00:07:43;2.80;;;2.50;;
60468;SDS011;46316;47.582;10.238;2022-07-17T00:10:08;5.03;;;2.85;;
60468;SDS011;46316;47.582;10.238;2022-07-17T00:12:34;3.47;;;2.90;;
60468;SDS011;46316;47.582;10.238;2022-07-17T00:15:01;3.78;;;3.15;;
60468;SDS011;46316;47.582;10.238;2022-07-17T00:17:26;5.55;;;2.70;;
60468;SDS011;46316;47.582;10.238;2022-07-17T00:19:52;4.53;;;3.00;;
60468;SDS011;46316;47.582;10.238;2022-07-17T00:22:17;2.97;;;2.67;;
60468;SDS011;46316;47.582;10.238;2022-07-17T00:24:43;4.68;;;3.03;;
60468;SDS011;46316;47.582;10.238;2022-07-17T00:27:08;7.70;;;3.20;;
60468;SDS011;46316;47.582;10.238;2022-07-17T00:29:34;3.22;;;2.90;;
60468;SDS011;46316;47.582;10.238;2022-07-17T00:32:00;5.20;;;2.90;;
60468;SDS011;46316;47.582;10.238;2022-07-17T00:34:25;4.60;;;2.90;;
60468;SDS011;46316;47.582;10.238;2022-07-17T00:36:52;4.78;;;2.88;;
60468;SDS011;46316;47.582;10.238;2022-07-17T00:39:17;4.40;;;3.10;;
60468;SDS011;46316;47.582;10.238;2022-07-17T00:41:43;7.22;;;3.15;;
60468;SDS011;46316;47.582;10.238;2022-07-17T00:44:10;4.72;;;2.53;;
60468;SDS011;46316;47.582;10.238;2022-07-17T00:46:37;3.30;;;2.90;;
60468;SDS011;46316;47.582;10.238;2022-07-17T00:49:03;3.20;;;2.88;;
60468;SDS011;46316;47.582;10.238;2022-07-17T00:51:29;3.22;;;2.92;;
60468;SDS011;46316;47.582;10.238;2022-07-17T00:53:55;4.47;;;2.92;;
60468;SDS011;46316;47.582;10.238;2022-07-17T00:56:22;5.50;;;3.30;;
60468;SDS011;46316;47.582;10.238;2022-07-17T00:58:49;4.15;;;3.00;;
60468;SDS011;46316;47.582;10.238;2022-07-17T01:01:15;5.40;;;3.03;;
60468;SDS011;46316;47.582;10.238;2022-07-17T01:03:41;5.95;;;3.17;;
60468;SDS011;46316;47.582;10.238;2022-07-17T01:06:07;3.40;;;3.10;;
60468;SDS011;46316;47.582;10.238;2022-07-17T01:08:32;4.40;;;2.75;;
60468;SDS011;46316;47.582;10.238;2022-07-17T01:10:58;4.45;;;2.90;;
60468;SDS011;46316;47.582;10.238;2022-07-17T01:13:24;4.50;;;2.92;;
60468;SDS011;46316;47.582;10.238;2022-07-17T01:15:51;3.00;;;2.70;;
60468;SDS011;46316;47.582;10.238;2022-07-17T01:18:16;4.13;;;2.97;;
60468;SDS011;46316;47.582;10.238;2022-07-17T01:20:43;3.25;;;2.45;;
60468;SDS011;46316;47.582;10.238;2022-07-17T01:23:10;4.72;;;3.17;;
60468;SDS011;46316;47.582;10.238;2022-07-17T01:25:36;3.25;;;2.55;;
60468;SDS011;46316;47.582;10.238;2022-07-17T01:28:02;3.60;;;3.00;;
60468;SDS011;46316;47.582;10.238;2022-07-17T01:30:29;3.78;;;3.28;;
60468;SDS011;46316;47.582;10.238;2022-07-17T01:32:55;4.55;;;2.90;;
60468;SDS011;46316;47.582;10.238;2022-07-17T01:35:21;3.78;;;2.70;;
60468;SDS011;46316;47.582;10.238;2022-07-17T01:37:47;4.65;;;2.90;;
60468;SDS011;46316;47.582;10.238;2022-07-17T01:40:14;3.45;;;3.10;;
60468;SDS011;46316;47.582;10.238;2022-07-17T01:42:47;4.40;;;2.92;;
60468;SDS011;46316;47.582;10.238;2022-07-17T01:45:15;4.63;;;2.90;;
60468;SDS011;46316;47.582;10.238;2022-07-17T01:47:42;4.07;;;3.15;;
60468;SDS011;46316;47.582;10.238;2022-07-17T01:50:08;3.35;;;2.95;;
60468;SDS011;46316;47.582;10.238;2022-07-17T01:52:36;4.07;;;3.33;;
60468;SDS011;46316;47.582;10.238;2022-07-17T01:55:07;3.47;;;3.17;;
60468;SDS011;46316;47.582;10.238;2022-07-17T01:57:34;3.30;;;2.60;;
60468;SDS011;46316;47.582;10.238;2022-07-17T02:00:00;3.35;;;2.95;;
60468;SDS011;46316;47.582;10.238;2022-07-17T02:02:26;3.15;;;2.85;;
60468;SDS011;46316;47.582;10.238;2022-07-17T02:04:52;3.38;;;3.08;;
60468;SDS011;46316;47.582;10.238;2022-07-17T02:07:17;3.97;;;2.97;;
60468;SDS011;46316;47.582;10.238;2022-07-17T02:09:43;3.45;;;3.15;;
60468;SDS011;46316;47.582;10.238;2022-07-17T02:12:08;5.53;;;3.05;;
60468;SDS011;46316;47.582;10.238;2022-07-17T02:14:34;3.63;;;3.13;;
60468;SDS011;46316;47.582;10.238;2022-07-17T02:17:00;8.73;;;3.65;;
60468;SDS011;46316;47.582;10.238;2022-07-17T02:19:26;3.92;;;3.13;;
60468;SDS011;46316;47.582;10.238;2022-07-17T02:21:51;5.43;;;3.35;;
60468;SDS011;46316;47.582;10.238;2022-07-17T02:24:17;5.50;;;3.78;;
60468;SDS011;46316;47.582;10.238;2022-07-17T02:26:43;5.55;;;3.03;;
60468;SDS011;46316;47.582;10.238;2022-07-17T02:29:09;4.35;;;3.13;;
60468;SDS011;46316;47.582;10.238;2022-07-17T02:31:35;3.30;;;2.90;;
60468;SDS011;46316;47.582;10.238;2022-07-17T02:34:00;3.60;;;3.30;;
60468;SDS011;46316;47.582;10.238;2022-07-17T02:36:26;3.40;;;3.10;;
60468;SDS011;46316;47.582;10.238;2022-07-17T02:38:52;3.47;;;3.10;;
60468;SDS011;46316;47.582;10.238;2022-07-17T02:41:17;4.07;;;3.03;;
60468;SDS011;46316;47.582;10.238;2022-07-17T02:43:43;3.75;;;3.10;;
60468;SDS011;46316;47.582;10.238;2022-07-17T02:46:09;3.28;;;2.97;;
60468;SDS011;46316;47.582;10.238;2022-07-17T02:48:34;4.28;;;3.30;;
60468;SDS011;46316;47.582;10.238;2022-07-17T02:51:00;5.90;;;3.13;;
60468;SDS011;46316;47.582;10.238;2022-07-17T02:53:25;4.20;;;3.80;;
60468;SDS011;46316;47.582;10.238;2022-07-17T02:55:51;3.58;;;3.08;;
60468;SDS011;46316;47.582;10.238;2022-07-17T02:58:17;6.72;;;3.25;;
60468;SDS011;46316;47.582;10.238;2022-07-17T03:00:43;3.63;;;3.10;;
60468;SDS011;46316;47.582;10.238;2022-07-17T03:03:08;5.47;;;2.85;;
60468;SDS011;46316;47.582;10.238;2022-07-17T03:05:34;3.72;;;3.42;;
60468;SDS011;46316;47.582;10.238;2022-07-17T03:07:59;5.28;;;3.22;;
60468;SDS011;46316;47.582;10.238;2022-07-17T03:10:25;4.60;;;3.67;;
60468;SDS011;46316;47.582;10.238;2022-07-17T03:12:50;6.32;;;4.03;;
60468;SDS011;46316;47.582;10.238;2022-07-17T03:15:16;3.67;;;3.28;;
60468;SDS011;46316;47.582;10.238;2022-07-17T03:17:42;3.65;;;3.13;;
60468;SDS011;46316;47.582;10.238;2022-07-17T03:20:08;5.00;;;2.90;;
60468;SDS011;46316;47.582;10.238;2022-07-17T03:22:34;3.65;;;3.08;;
60468;SDS011;46316;47.582;10.238;2022-07-17T03:25:00;4.05;;;3.20;;
60468;SDS011;46316;47.582;10.238;2022-07-17T03:27:25;3.97;;;3.40;;
60468;SDS011;46316;47.582;10.238;2022-07-17T03:29:52;4.80;;;3.25;;
60468;SDS011;46316;47.582;10.238;2022-07-17T03:32:18;5.88;;;3.83;;
60468;SDS011;46316;47.582;10.238;2022-07-17T03:34:44;4.60;;;3.58;;
60468;SDS011;46316;47.582;10.238;2022-07-17T03:37:09;3.85;;;3.08;;
60468;SDS011;46316;47.582;10.238;2022-07-17T03:39:35;4.05;;;3.65;;
60468;SDS011;46316;47.582;10.238;2022-07-17T03:42:00;3.90;;;3.40;;
60468;SDS011;46316;47.582;10.238;2022-07-17T03:44:26;3.83;;;3.42;;
60468;SDS011;46316;47.582;10.238;2022-07-17T03:46:51;5.45;;;3.70;;
60468;SDS011;46316;47.582;10.238;2022-07-17T03:49:17;6.30;;;3.50;;
60468;SDS011;46316;47.582;10.238;2022-07-17T03:51:43;4.43;;;3.40;;
60468;SDS011;46316;47.582;10.238;2022-07-17T03:54:08;3.90;;;3.47;;
60468;SDS011;46316;47.582;10.238;2022-07-17T03:56:34;5.38;;;3.30;;
60468;SDS011;46316;47.582;10.238;2022-07-17T03:59:00;3.80;;;3.42;;
60468;SDS011;46316;47.582;10.238;2022-07-17T04:01:25;3.83;;;3.45;;
60468;SDS011;46316;47.582;10.238;2022-07-17T04:03:51;4.40;;;3.55;;
60468;SDS011;46316;47.582;10.238;2022-07-17T04:06:16;6.05;;;3.60;;
60468;SDS011;46316;47.582;10.238;2022-07-17T04:08:42;4.40;;;3.78;;
60468;SDS011;46316;47.582;10.238;2022-07-17T04:11:08;4.32;;;3.22;;
60468;SDS011;46316;47.582;10.238;2022-07-17T04:13:33;4.28;;;3.67;;
60468;SDS011;46316;47.582;10.238;2022-07-17T04:15:59;6.93;;;4.10;;
60468;SDS011;46316;47.582;10.238;2022-07-17T04:18:29;7.72;;;3.80;;
60468;SDS011;46316;47.582;10.238;2022-07-17T04:20:57;5.15;;;3.28;;
60468;SDS011;46316;47.582;10.238;2022-07-17T04:23:24;4.47;;;3.20;;
60468;SDS011;46316;47.582;10.238;2022-07-17T04:25:50;4.75;;;3.05;;
60468;SDS011;46316;47.582;10.238;2022-07-17T04:28:15;3.25;;;2.80;;
60468;SDS011;46316;47.582;10.238;2022-07-17T04:30:41;3.88;;;2.70;;
60468;SDS011;46316;47.582;10.238;2022-07-17T04:33:08;8.25;;;3.40;;
60468;SDS011;46316;47.582;10.238;2022-07-17T04:35:34;3.03;;;2.78;;
60468;SDS011;46316;47.582;10.238;2022-07-17T04:38:00;2.85;;;2.50;;
60468;SDS011;46316;47.582;10.238;2022-07-17T04:40:26;2.95;;;2.65;;
60468;SDS011;46316;47.582;10.238;2022-07-17T04:42:51;4.97;;;2.20;;
60468;SDS011;46316;47.582;10.238;2022-07-17T04:45:18;2.58;;;2.15;;
60468;SDS011;46316;47.582;10.238;2022-07-17T04:47:43;3.10;;;2.38;;
60468;SDS011;46316;47.582;10.238;2022-07-17T04:50:09;3.63;;;2.72;;
60468;SDS011;46316;47.582;10.238;2022-07-17T04:52:35;3.58;;;2.60;;
60468;SDS011;46316;47.582;10.238;2022-07-17T04:55:01;3.38;;;3.00;;
60468;SDS011;46316;47.582;10.238;2022-07-17T04:57:27;4.32;;;3.13;;
60468;SDS011;46316;47.582;10.238;2022-07-17T04:59:52;2.70;;;2.30;;
60468;SDS011;46316;47.582;10.238;2022-07-17T05:02:18;3.38;;;2.67;;
60468;SDS011;46316;47.582;10.238;2022-07-17T05:04:44;4.13;;;2.50;;
60468;SDS011;46316;47.582;10.238;2022-07-17T05:07:09;3.78;;;2.60;;
60468;SDS011;46316;47.582;10.238;2022-07-17T05:09:35;2.38;;;2.15;;
60468;SDS011;46316;47.582;10.238;2022-07-17T05:12:01;3.13;;;2.83;;
60468;SDS011;46316;47.582;10.238;2022-07-17T05:14:27;3.17;;;2.85;;
60468;SDS011;46316;47.582;10.238;2022-07-17T05:16:52;7.50;;;3.00;;
60468;SDS011;46316;47.582;10.238;2022-07-17T05:19:18;5.93;;;2.83;;
60468;SDS011;46316;47.582;10.238;2022-07-17T05:21:43;3.42;;;2.38;;
60468;SDS011;46316;47.582;10.238;2022-07-17T05:24:09;3.70;;;2.58;;
60468;SDS011;46316;47.582;10.238;2022-07-17T05:26:34;4.05;;;2.70;;
60468;SDS011;46316;47.582;10.238;2022-07-17T05:29:00;4.70;;;2.72;;
60468;SDS011;46316;47.582;10.238;2022-07-17T05:31:25;5.20;;;3.03;;
60468;SDS011;46316;47.582;10.238;2022-07-17T05:33:51;3.63;;;2.60;;
60468;SDS011;46316;47.582;10.238;2022-07-17T05:36:16;6.65;;;2.58;;
60468;SDS011;46316;47.582;10.238;2022-07-17T05:38:42;3.38;;;2.58;;
60468;SDS011;46316;47.582;10.238;2022-07-17T05:41:07;2.63;;;2.30;;
60468;SDS011;46316;47.582;10.238;2022-07-17T05:43:33;3.55;;;2.78;;
60468;SDS011;46316;47.582;10.238;2022-07-17T05:45:59;2.78;;;2.30;;
60468;SDS011;46316;47.582;10.238;2022-07-17T05:48:25;2.60;;;2.40;;
60468;SDS011;46316;47.582;10.238;2022-07-17T05:50:51;2.53;;;2.30;;
60468;SDS011;46316;47.582;10.238;2022-07-17T05:53:16;3.35;;;2.70;;
60468;SDS011;46316;47.582;10.238;2022-07-17T05:55:42;4.00;;;2.40;;
60468;SDS011;46316;47.582;10.238;2022-07-17T05:58:07;5.75;;;2.47;;
60468;SDS011;46316;47.582;10.238;2022-07-17T06:00:33;2.80;;;2.53;;
60468;SDS011;46316;47.582;10.238;2022-07-17T06:03:00;2.80;;;2.50;;
60468;SDS011;46316;47.582;10.238;2022-07-17T06:05:25;4.03;;;2.40;;
60468;SDS011;46316;47.582;10.238;2022-07-17T06:07:52;4.20;;;2.42;;
60468;SDS011;46316;47.582;10.238;2022-07-17T06:10:18;2.90;;;2.70;;
60468;SDS011;46316;47.582;10.238;2022-07-17T06:12:44;5.40;;;2.28;;
60468;SDS011;46316;47.582;10.238;2022-07-17T06:15:10;2.88;;;2.30;;
60468;SDS011;46316;47.582;10.238;2022-07-17T06:17:36;3.67;;;2.63;;
60468;SDS011;46316;47.582;10.238;2022-07-17T06:20:02;3.45;;;2.50;;
60468;SDS011;46316;47.582;10.238;2022-07-17T06:22:28;3.55;;;2.53;;
60468;SDS011;46316;47.582;10.238;2022-07-17T06:24:54;2.40;;;2.20;;
60468;SDS011;46316;47.582;10.238;2022-07-17T06:27:19;3.95;;;1.98;;
60468;SDS011;46316;47.582;10.238;2022-07-17T06:29:45;2.45;;;2.10;;
60468;SDS011;46316;47.582;10.238;2022-07-17T06:32:11;3.05;;;2.38;;
60468;SDS011;46316;47.582;10.238;2022-07-17T06:34:37;3.50;;;2.10;;
60468;SDS011;46316;47.582;10.238;2022-07-17T06:37:03;2.28;;;2.08;;
60468;SDS011;46316;47.582;10.238;2022-07-17T06:39:28;4.13;;;2.00;;
60468;SDS011;46316;47.582;10.238;2022-07-17T06:41:54;3.03;;;2.65;;
60468;SDS011;46316;47.582;10.238;2022-07-17T06:44:19;3.20;;;2.53;;
60468;SDS011;46316;47.582;10.238;2022-07-17T06:46:45;2.90;;;2.17;;
60468;SDS011;46316;47.582;10.238;2022-07-17T06:49:11;2.88;;;2.15;;
60468;SDS011;46316;47.582;10.238;2022-07-17T06:51:36;2.70;;;2.50;;
60468;SDS011;46316;47.582;10.238;2022-07-17T06:54:02;4.20;;;2.40;;
60468;SDS011;46316;47.582;10.238;2022-07-17T06:56:28;3.08;;;2.10;;
60468;SDS011;46316;47.582;10.238;2022-07-17T06:58:53;2.72;;;2.35;;
60468;SDS011;46316;47.582;10.238;2022-07-17T07:01:19;4.13;;;2.67;;
60468;SDS011;46316;47.582;10.238;2022-07-17T07:03:45;3.13;;;2.78;;
60468;SDS011;46316;47.582;10.238;2022-07-17T07:06:10;2.85;;;2.50;;
60468;SDS011;46316;47.582;10.238;2022-07-17T07:08:36;2.55;;;2.35;;
60468;SDS011;46316;47.582;10.238;2022-07-17T07:11:02;2.95;;;2.28;;
60468;SDS011;46316;47.582;10.238;2022-07-17T07:13:27;2.33;;;2.13;;
60468;SDS011;46316;47.582;10.238;2022-07-17T07:15:53;3.03;;;2.72;;
60468;SDS011;46316;47.582;10.238;2022-07-17T07:18:19;3.10;;;2.55;;
60468;SDS011;46316;47.582;10.238;2022-07-17T07:20:45;4.40;;;2.42;;
60468;SDS011;46316;47.582;10.238;2022-07-17T07:23:10;3.33;;;2.75;;
60468;SDS011;46316;47.582;10.238;2022-07-17T07:25:36;2.92;;;2.63;;
60468;SDS011;46316;47.582;10.238;2022-07-17T07:28:02;3.35;;;2.42;;
60468;SDS011;46316;47.582;10.238;2022-07-17T07:30:28;4.97;;;2.47;;
60468;SDS011;46316;47.582;10.238;2022-07-17T07:32:54;3.35;;;2.40;;
60468;SDS011;46316;47.582;10.238;2022-07-17T07:35:19;3.28;;;2.53;;
60468;SDS011;46316;47.582;10.238;2022-07-17T07:37:45;2.58;;;2.38;;
60468;SDS011;46316;47.582;10.238;2022-07-17T07:40:11;3.45;;;2.72;;
60468;SDS011;46316;47.582;10.238;2022-07-17T07:42:37;2.67;;;2.45;;
60468;SDS011;46316;47.582;10.238;2022-07-17T07:45:02;3.28;;;2.10;;
60468;SDS011;46316;47.582;10.238;2022-07-17T07:47:28;2.47;;;2.00;;
60468;SDS011;46316;47.582;10.238;2022-07-17T07:49:54;2.60;;;2.40;;
60468;SDS011;46316;47.582;10.238;2022-07-17T07:52:19;2.58;;;2.33;;
60468;SDS011;46316;47.582;10.238;2022-07-17T07:54:45;2.88;;;2.22;;
60468;SDS011;46316;47.582;10.238;2022-07-17T07:57:11;3.17;;;2.55;;
60468;SDS011;46316;47.582;10.238;2022-07-17T07:59:36;2.65;;;2.38;;
60468;SDS011;46316;47.582;10.238;2022-07-17T08:02:03;2.60;;;2.38;;
60468;SDS011;46316;47.582;10.238;2022-07-17T08:04:29;2.50;;;2.30;;
60468;SDS011;46316;47.582;10.238;2022-07-17T08:06:55;2.95;;;2.20;;
60468;SDS011;46316;47.582;10.238;2022-07-17T08:09:21;3.33;;;2.50;;
60468;SDS011;46316;47.582;10.238;2022-07-17T08:11:46;3.72;;;2.50;;
60468;SDS011;46316;47.582;10.238;2022-07-17T08:14:12;2.65;;;2.45;;
60468;SDS011;46316;47.582;10.238;2022-07-17T08:16:38;2.55;;;2.35;;
60468;SDS011;46316;47.582;10.238;2022-07-17T08:19:03;6.28;;;2.72;;
60468;SDS011;46316;47.582;10.238;2022-07-17T08:21:29;2.55;;;2.35;;
60468;SDS011;46316;47.582;10.238;2022-07-17T08:23:54;3.70;;;2.47;;
60468;SDS011;46316;47.582;10.238;2022-07-17T08:26:20;3.58;;;2.40;;
60468;SDS011;46316;47.582;10.238;2022-07-17T08:28:45;3.80;;;2.58;;
60468;SDS011;46316;47.582;10.238;2022-07-17T08:31:11;5.90;;;2.50;;
60468;SDS011;46316;47.582;10.238;2022-07-17T08:33:37;3.47;;;2.45;;
60468;SDS011;46316;47.582;10.238;2022-07-17T08:36:02;2.65;;;2.28;;
60468;SDS011;46316;47.582;10.238;2022-07-17T08:38:28;4.78;;;2.40;;
60468;SDS011;46316;47.582;10.238;2022-07-17T08:40:54;2.80;;;2.35;;
60468;SDS011;46316;47.582;10.238;2022-07-17T08:43:20;2.47;;;2.10;;
60468;SDS011;46316;47.582;10.238;2022-07-17T08:45:46;2.95;;;2.20;;
60468;SDS011;46316;47.582;10.238;2022-07-17T08:48:13;2.92;;;2.05;;
60468;SDS011;46316;47.582;10.238;2022-07-17T08:50:40;3.28;;;2.22;;
60468;SDS011;46316;47.582;10.238;2022-07-17T08:53:06;4.05;;;2.10;;
60468;SDS011;46316;47.582;10.238;2022-07-17T08:55:32;3.58;;;2.33;;
60468;SDS011;46316;47.582;10.238;2022-07-17T08:57:58;3.70;;;2.25;;
60468;SDS011;46316;47.582;10.238;2022-07-17T09:00:24;2.30;;;2.08;;
60468;SDS011;46316;47.582;10.238;2022-07-17T09:02:58;2.50;;;1.98;;
60468;SDS011;46316;47.582;10.238;2022-07-17T09:05:28;1.85;;;1.67;;
60468;SDS011;46316;47.582;10.238;2022-07-17T09:07:55;3.20;;;1.90;;
60468;SDS011;46316;47.582;10.238;2022-07-17T09:13:01;1.98;;;1.83;;
60468;SDS011;46316;47.582;10.238;2022-07-17T09:15:37;2.53;;;1.90;;
60468;SDS011;46316;47.582;10.238;2022-07-17T09:18:03;5.13;;;1.90;;
60468;SDS011;46316;47.582;10.238;2022-07-17T09:20:28;2.35;;;1.73;;
60468;SDS011;46316;47.582;10.238;2022-07-17T09:22:58;4.18;;;2.20;;
60468;SDS011;46316;47.582;10.238;2022-07-17T09:25:58;2.03;;;1.70;;
60468;SDS011;46316;47.582;10.238;2022-07-17T09:28:19;2.25;;;1.90;;
60468;SDS011;46316;47.582;10.238;2022-07-17T09:30:49;2.80;;;2.05;;
60468;SDS011;46316;47.582;10.238;2022-07-17T09:35:54;1.92;;;1.75;;
60468;SDS011;46316;47.582;10.238;2022-07-17T09:38:35;3.63;;;1.63;;
60468;SDS011;46316;47.582;10.238;2022-07-17T09:41:03;2.38;;;1.85;;
60468;SDS011;46316;47.582;10.238;2022-07-17T09:43:47;2.83;;;2.00;;
60468;SDS011;46316;47.582;10.238;2022-07-17T09:46:32;5.15;;;1.90;;
60468;SDS011;46316;47.582;10.238;2022-07-17T09:48:59;2.67;;;1.67;;
60468;SDS011;46316;47.582;10.238;2022-07-17T09:51:31;4.03;;;2.13;;
60468;SDS011;46316;47.582;10.238;2022-07-17T09:54:02;2.70;;;2.10;;
60468;SDS011;46316;47.582;10.238;2022-07-17T09:56:30;2.45;;;2.13;;
60468;SDS011;46316;47.582;10.238;2022-07-17T09:59:00;2.17;;;1.60;;
60468;SDS011;46316;47.582;10.238;2022-07-17T10:01:30;2.50;;;1.80;;
60468;SDS011;46316;47.582;10.238;2022-07-17T10:03:57;3.33;;;1.80;;
60468;SDS011;46316;47.582;10.238;2022-07-17T10:06:24;2.42;;;1.75;;
60468;SDS011;46316;47.582;10.238;2022-07-17T10:08:53;2.83;;;2.08;;
60468;SDS011;46316;47.582;10.238;2022-07-17T10:11:21;2.53;;;2.00;;
60468;SDS011;46316;47.582;10.238;2022-07-17T10:13:49;2.40;;;1.80;;
60468;SDS011;46316;47.582;10.238;2022-07-17T10:16:27;1.92;;;1.83;;
60468;SDS011;46316;47.582;10.238;2022-07-17T10:18:54;2.05;;;1.90;;
60468;SDS011;46316;47.582;10.238;2022-07-17T10:21:23;2.28;;;2.03;;
60468;SDS011;46316;47.582;10.238;2022-07-17T10:26:40;4.47;;;2.00;;
60468;SDS011;46316;47.582;10.238;2022-07-17T10:29:24;3.15;;;1.90;;
60468;SDS011;46316;47.582;10.238;2022-07-17T10:31:50;2.67;;;2.03;;
60468;SDS011;46316;47.582;10.238;2022-07-17T10:34:17;3.20;;;1.88;;
60468;SDS011;46316;47.582;10.238;2022-07-17T10:36:43;2.22;;;1.88;;
60468;SDS011;46316;47.582;10.238;2022-07-17T10:39:19;3.53;;;1.90;;
60468;SDS011;46316;47.582;10.238;2022-07-17T10:41:58;2.35;;;2.15;;
60468;SDS011;46316;47.582;10.238;2022-07-17T10:44:28;4.15;;;2.00;;
60468;SDS011;46316;47.582;10.238;2022-07-17T10:46:55;1.88;;;1.70;;
60468;SDS011;46316;47.582;10.238;2022-07-17T10:49:22;2.80;;;2.03;;
60468;SDS011;46316;47.582;10.238;2022-07-17T10:51:48;2.38;;;1.95;;
60468;SDS011;46316;47.582;10.238;2022-07-17T10:54:15;2.63;;;1.70;;
60468;SDS011;46316;47.582;10.238;2022-07-17T10:56:42;2.72;;;1.80;;
60468;SDS011;46316;47.582;10.238;2022-07-17T10:59:09;3.25;;;1.92;;
60468;SDS011;46316;47.582;10.238;2022-07-17T11:01:35;4.03;;;2.20;;
60468;SDS011;46316;47.582;10.238;2022-07-17T11:04:02;1.90;;;1.63;;
60468;SDS011;46316;47.582;10.238;2022-07-17T11:06:30;3.58;;;1.77;;
60468;SDS011;46316;47.582;10.238;2022-07-17T11:09:04;2.90;;;2.15;;
60468;SDS011;46316;47.582;10.238;2022-07-17T11:11:46;3.20;;;2.00;;
60468;SDS011;46316;47.582;10.238;2022-07-17T11:14:15;2.20;;;2.00;;
60468;SDS011;46316;47.582;10.238;2022-07-17T11:16:50;2.22;;;2.08;;
60468;SDS011;46316;47.582;10.238;2022-07-17T11:21:57;3.38;;;2.10;;
60468;SDS011;46316;47.582;10.238;2022-07-17T11:24:24;3.72;;;2.10;;
60468;SDS011;46316;47.582;10.238;2022-07-17T11:27:00;2.72;;;2.08;;
60468;SDS011;46316;47.582;10.238;2022-07-17T11:29:25;3.42;;;2.25;;
60468;SDS011;46316;47.582;10.238;2022-07-17T11:31:55;6.05;;;2.20;;
60468;SDS011;46316;47.582;10.238;2022-07-17T11:34:21;2.60;;;2.03;;
60468;SDS011;46316;47.582;10.238;2022-07-17T11:36:50;3.15;;;2.10;;
60468;SDS011;46316;47.582;10.238;2022-07-17T11:39:16;2.30;;;2.10;;
60468;SDS011;46316;47.582;10.238;2022-07-17T11:41:48;3.42;;;2.00;;
60468;SDS011;46316;47.582;10.238;2022-07-17T11:44:18;2.50;;;2.10;;
60468;SDS011;46316;47.582;10.238;2022-07-17T11:46:46;2.80;;;2.10;;
60468;SDS011;46316;47.582;10.238;2022-07-17T11:52:06;2.72;;;2.28;;
60468;SDS011;46316;47.582;10.238;2022-07-17T11:54:45;4.15;;;2.33;;
60468;SDS011;46316;47.582;10.238;2022-07-17T11:57:12;2.80;;;2.33;;
60468;SDS011;46316;47.582;10.238;2022-07-17T11:59:39;2.40;;;2.20;;
60468;SDS011;46316;47.582;10.238;2022-07-17T12:02:06;3.72;;;2.10;;
60468;SDS011;46316;47.582;10.238;2022-07-17T12:04:33;3.47;;;2.00;;
60468;SDS011;46316;47.582;10.238;2022-07-17T12:06:59;2.28;;;1.80;;
60468;SDS011;46316;47.582;10.238;2022-07-17T12:09:27;3.53;;;2.15;;
60468;SDS011;46316;47.582;10.238;2022-07-17T12:11:53;2.08;;;1.88;;
60468;SDS011;46316;47.582;10.238;2022-07-17T12:14:19;2.75;;;2.53;;
60468;SDS011;46316;47.582;10.238;2022-07-17T12:16:45;3.67;;;2.13;;
60468;SDS011;46316;47.582;10.238;2022-07-17T12:19:12;2.30;;;2.00;;
60468;SDS011;46316;47.582;10.238;2022-07-17T12:26:58;6.60;;;2.08;;
60468;SDS011;46316;47.582;10.238;2022-07-17T12:29:26;3.85;;;2.03;;
60468;SDS011;46316;47.582;10.238;2022-07-17T12:32:03;2.45;;;2.20;;
60468;SDS011;46316;47.582;10.238;2022-07-17T12:34:30;3.88;;;2.20;;
60468;SDS011;46316;47.582;10.238;2022-07-17T12:36:56;2.47;;;2.10;;
60468;SDS011;46316;47.582;10.238;2022-07-17T12:39:21;4.05;;;2.13;;
60468;SDS011;46316;47.582;10.238;2022-07-17T12:41:47;2.85;;;2.30;;
60468;SDS011;46316;47.582;10.238;2022-07-17T12:44:12;3.08;;;2.20;;
60468;SDS011;46316;47.582;10.238;2022-07-17T12:46:38;5.55;;;2.53;;
60468;SDS011;46316;47.582;10.238;2022-07-17T12:49:03;4.07;;;2.25;;
60468;SDS011;46316;47.582;10.238;2022-07-17T12:51:29;3.50;;;2.38;;
60468;SDS011;46316;47.582;10.238;2022-07-17T12:53:56;2.35;;;1.98;;
60468;SDS011;46316;47.582;10.238;2022-07-17T12:56:22;2.70;;;2.00;;
60468;SDS011;46316;47.582;10.238;2022-07-17T12:58:48;3.90;;;2.40;;
60468;SDS011;46316;47.582;10.238;2022-07-17T13:01:14;3.97;;;2.00;;
60468;SDS011;46316;47.582;10.238;2022-07-17T13:03:41;2.47;;;2.28;;
60468;SDS011;46316;47.582;10.238;2022-07-17T13:06:07;3.97;;;2.10;;
60468;SDS011;46316;47.582;10.238;2022-07-17T13:08:32;2.50;;;2.30;;
60468;SDS011;46316;47.582;10.238;2022-07-17T13:10:58;3.05;;;2.40;;
60468;SDS011;46316;47.582;10.238;2022-07-17T13:13:24;5.07;;;2.20;;
60468;SDS011;46316;47.582;10.238;2022-07-17T13:15:50;3.15;;;2.33;;
60468;SDS011;46316;47.582;10.238;2022-07-17T13:18:15;3.88;;;2.20;;
60468;SDS011;46316;47.582;10.238;2022-07-17T13:20:41;2.47;;;2.22;;
60468;SDS011;46316;47.582;10.238;2022-07-17T13:23:07;3.25;;;2.13;;
60468;SDS011;46316;47.582;10.238;2022-07-17T13:25:33;3.15;;;2.00;;
60468;SDS011;46316;47.582;10.238;2022-07-17T13:27:58;4.60;;;2.20;;
60468;SDS011;46316;47.582;10.238;2022-07-17T13:30:24;3.55;;;2.38;;
60468;SDS011;46316;47.582;10.238;2022-07-17T13:32:50;5.82;;;2.38;;
60468;SDS011;46316;47.582;10.238;2022-07-17T13:35:15;3.03;;;2.55;;
60468;SDS011;46316;47.582;10.238;2022-07-17T13:37:42;2.55;;;1.92;;
60468;SDS011;46316;47.582;10.238;2022-07-17T13:40:09;2.95;;;2.35;;
60468;SDS011;46316;47.582;10.238;2022-07-17T13:42:35;3.47;;;2.40;;
60468;SDS011;46316;47.582;10.238;2022-07-17T13:45:00;2.17;;;1.98;;
60468;SDS011;46316;47.582;10.238;2022-07-17T13:47:27;2.40;;;2.20;;
60468;SDS011;46316;47.582;10.238;2022-07-17T13:49:52;2.65;;;2.00;;
60468;SDS011;46316;47.582;10.238;2022-07-17T13:52:18;3.97;;;2.28;;
60468;SDS011;46316;47.582;10.238;2022-07-17T13:54:43;3.55;;;2.15;;
60468;SDS011;46316;47.582;10.238;2022-07-17T13:57:09;2.63;;;2.30;;
60468;SDS011;46316;47.582;10.238;2022-07-17T13:59:34;3.97;;;2.30;;
60468;SDS011;46316;47.582;10.238;2022-07-17T14:02:00;2.20;;;2.00;;
60468;SDS011;46316;47.582;10.238;2022-07-17T14:04:25;2.28;;;2.00;;
60468;SDS011;46316;47.582;10.238;2022-07-17T14:06:51;2.38;;;2.17;;
60468;SDS011;46316;47.582;10.238;2022-07-17T14:09:17;5.20;;;2.05;;
60468;SDS011;46316;47.582;10.238;2022-07-17T14:11:42;2.00;;;1.90;;
60468;SDS011;46316;47.582;10.238;2022-07-17T14:14:08;3.75;;;2.40;;
60468;SDS011;46316;47.582;10.238;2022-07-17T14:16:33;2.40;;;2.10;;
60468;SDS011;46316;47.582;10.238;2022-07-17T14:18:59;4.32;;;2.38;;
60468;SDS011;46316;47.582;10.238;2022-07-17T14:21:26;3.85;;;2.20;;
60468;SDS011;46316;47.582;10.238;2022-07-17T14:23:51;2.10;;;1.90;;
60468;SDS011;46316;47.582;10.238;2022-07-17T14:26:17;4.22;;;2.65;;
60468;SDS011;46316;47.582;10.238;2022-07-17T14:28:42;4.00;;;2.47;;
60468;SDS011;46316;47.582;10.238;2022-07-17T14:31:08;2.40;;;2.20;;
60468;SDS011;46316;47.582;10.238;2022-07-17T14:33:33;3.10;;;2.10;;
60468;SDS011;46316;47.582;10.238;2022-07-17T14:35:59;2.38;;;2.15;;
60468;SDS011;46316;47.582;10.238;2022-07-17T14:38:24;3.72;;;2.10;;
60468;SDS011;46316;47.582;10.238;2022-07-17T14:40:50;2.75;;;2.17;;
60468;SDS011;46316;47.582;10.238;2022-07-17T14:43:15;2.10;;;1.98;;
60468;SDS011;46316;47.582;10.238;2022-07-17T14:45:41;3.40;;;1.90;;
60468;SDS011;46316;47.582;10.238;2022-07-17T14:48:07;2.83;;;2.15;;